sensor_id;sensor_type;location;lat;lon;timestamp;noise_LAeq;noise_LA_min;noise_LA_max;noise_LA01;noise_LA95
66274;Laerm;58450;52.150;4.466;2023-07-31T00:01:00;56.45;46.22;74.29;;
66274;Laerm;58450;52.150;4.466;2023-07-31T00:03:29;57.95;45.33;78.13;;
66274;Laerm;58450;52.150;4.466;2023-07-31T00:05:57;56.72;47.31;73.67;;
66274;Laerm;58450;52.150;4.466;2023-07-31T00:08:25;57.15;48.74;72.67;;
66274;Laerm;58450;52.150;4.466;2023-07-31T00:10:52;60.36;49.98;75.58;;
66274;Laerm;58450;52.150;4.466;2023-07-31T00:13:20;58.53;48.75;77.91;;
66274;Laerm;58450;52.150;4.466;2023-07-31T00:15:48;57.97;48.81;77.55;;
66274;Laerm;58450;52.150;4.466;2023-07-31T00:18:15;56.50;49.43;71.42;;
66274;Laerm;58450;52.150;4.466;2023-07-31T00:20:44;53.21;47.82;62.53;;
66274;Laerm;58450;52.150;4.466;2023-07-31T00:23:12;57.85;50.66;67.47;;
66274;Laerm;58450;52.150;4.466;2023-07-31T00:25:40;61.74;54.36;70.83;;
66274;Laerm;58450;52.150;4.466;2023-07-31T00:28:07;59.84;51.28;69.30;;
66274;Laerm;58450;52.150;4.466;2023-07-31T00:30:35;56.06;50.79;70.29;;
66274;Laerm;58450;52.150;4.466;2023-07-31T00:33:03;57.03;47.14;77.43;;
66274;Laerm;58450;52.150;4.466;2023-07-31T00:35:30;51.62;46.99;66.42;;
66274;Laerm;58450;52.150;4.466;2023-07-31T00:38:00;52.55;46.03;63.99;;
66274;Laerm;58450;52.150;4.466;2023-07-31T00:40:28;50.73;44.71;69.31;;
66274;Laerm;58450;52.150;4.466;2023-07-31T00:42:56;53.47;46.15;71.23;;
66274;Laerm;58450;52.150;4.466;2023-07-31T00:45:23;54.03;46.23;72.47;;
66274;Laerm;58450;52.150;4.466;2023-07-31T00:47:53;48.91;44.60;57.86;;
66274;Laerm;58450;52.150;4.466;2023-07-31T00:50:22;49.89;43.64;66.80;;
66274;Laerm;58450;52.150;4.466;2023-07-31T00:52:51;50.03;43.54;67.98;;
66274;Laerm;58450;52.150;4.466;2023-07-31T00:55:20;50.60;44.44;65.16;;
66274;Laerm;58450;52.150;4.466;2023-07-31T00:57:49;48.83;42.90;62.83;;
66274;Laerm;58450;52.150;4.466;2023-07-31T01:00:18;47.85;43.05;58.24;;
66274;Laerm;58450;52.150;4.466;2023-07-31T01:02:46;50.37;44.39;68.22;;
66274;Laerm;58450;52.150;4.466;2023-07-31T01:05:14;48.86;44.76;62.51;;
66274;Laerm;58450;52.150;4.466;2023-07-31T01:07:54;58.09;43.30;79.44;;
66274;Laerm;58450;52.150;4.466;2023-07-31T01:10:34;55.82;43.72;75.18;;
66274;Laerm;58450;52.150;4.466;2023-07-31T01:13:06;52.98;46.60;71.06;;
66274;Laerm;58450;52.150;4.466;2023-07-31T01:15:33;52.06;44.92;70.48;;
66274;Laerm;58450;52.150;4.466;2023-07-31T01:18:01;49.26;43.97;63.66;;
66274;Laerm;58450;52.150;4.466;2023-07-31T01:20:31;56.71;43.20;80.80;;
66274;Laerm;58450;52.150;4.466;2023-07-31T01:26:19;54.25;43.64;78.84;;
66274;Laerm;58450;52.150;4.466;2023-07-31T01:28:55;53.45;45.89;74.24;;
66274;Laerm;58450;52.150;4.466;2023-07-31T01:31:25;49.02;43.40;61.31;;
66274;Laerm;58450;52.150;4.466;2023-07-31T01:34:00;52.30;43.89;71.02;;
66274;Laerm;58450;52.150;4.466;2023-07-31T01:36:28;48.94;44.57;58.63;;
66274;Laerm;58450;52.150;4.466;2023-07-31T01:38:58;54.06;44.40;76.11;;
66274;Laerm;58450;52.150;4.466;2023-07-31T01:41:28;50.29;41.74;64.81;;
66274;Laerm;58450;52.150;4.466;2023-07-31T01:43:55;54.04;44.90;78.10;;
66274;Laerm;58450;52.150;4.466;2023-07-31T01:46:23;50.27;43.43;65.65;;
66274;Laerm;58450;52.150;4.466;2023-07-31T01:48:51;54.41;46.23;68.35;;
66274;Laerm;58450;52.150;4.466;2023-07-31T01:51:18;53.86;46.05;73.84;;
66274;Laerm;58450;52.150;4.466;2023-07-31T01:53:46;49.66;43.04;62.59;;
66274;Laerm;58450;52.150;4.466;2023-07-31T01:56:13;50.57;42.43;65.59;;
66274;Laerm;58450;52.150;4.466;2023-07-31T01:58:42;53.38;43.37;72.63;;
66274;Laerm;58450;52.150;4.466;2023-07-31T02:01:10;51.27;42.35;67.37;;
66274;Laerm;58450;52.150;4.466;2023-07-31T02:03:37;50.74;42.26;67.15;;
66274;Laerm;58450;52.150;4.466;2023-07-31T02:06:05;55.15;44.04;75.49;;
66274;Laerm;58450;52.150;4.466;2023-07-31T02:08:32;51.74;44.69;74.80;;
66274;Laerm;58450;52.150;4.466;2023-07-31T02:11:00;48.27;41.92;62.34;;
66274;Laerm;58450;52.150;4.466;2023-07-31T02:13:28;57.33;44.62;72.53;;
66274;Laerm;58450;52.150;4.466;2023-07-31T02:15:57;53.60;44.16;71.45;;
66274;Laerm;58450;52.150;4.466;2023-07-31T02:18:24;53.21;44.43;77.34;;
66274;Laerm;58450;52.150;4.466;2023-07-31T02:20:52;52.34;43.11;76.49;;
66274;Laerm;58450;52.150;4.466;2023-07-31T02:23:20;55.07;42.78;75.26;;
66274;Laerm;58450;52.150;4.466;2023-07-31T02:25:48;47.57;41.60;61.17;;
66274;Laerm;58450;52.150;4.466;2023-07-31T02:28:15;55.06;40.01;83.49;;
66274;Laerm;58450;52.150;4.466;2023-07-31T02:30:45;53.04;42.90;71.13;;
66274;Laerm;58450;52.150;4.466;2023-07-31T02:33:15;51.00;44.22;65.07;;
66274;Laerm;58450;52.150;4.466;2023-07-31T02:35:43;55.05;45.88;72.39;;
66274;Laerm;58450;52.150;4.466;2023-07-31T02:38:10;52.70;43.64;71.89;;
66274;Laerm;58450;52.150;4.466;2023-07-31T02:40:39;50.08;42.30;68.12;;
66274;Laerm;58450;52.150;4.466;2023-07-31T02:43:07;50.78;43.60;64.43;;
66274;Laerm;58450;52.150;4.466;2023-07-31T02:45:35;56.86;45.17;71.34;;
66274;Laerm;58450;52.150;4.466;2023-07-31T02:48:03;49.16;42.90;60.91;;
66274;Laerm;58450;52.150;4.466;2023-07-31T02:50:32;47.20;41.68;61.13;;
66274;Laerm;58450;52.150;4.466;2023-07-31T02:52:59;51.81;41.10;66.87;;
66274;Laerm;58450;52.150;4.466;2023-07-31T02:55:27;49.11;41.44;63.14;;
66274;Laerm;58450;52.150;4.466;2023-07-31T02:57:55;56.28;46.97;68.00;;
66274;Laerm;58450;52.150;4.466;2023-07-31T03:00:22;53.29;46.08;68.33;;
66274;Laerm;58450;52.150;4.466;2023-07-31T03:02:50;49.09;41.90;62.75;;
66274;Laerm;58450;52.150;4.466;2023-07-31T03:05:17;49.19;42.31;63.32;;
66274;Laerm;58450;52.150;4.466;2023-07-31T03:07:46;48.22;41.32;66.71;;
66274;Laerm;58450;52.150;4.466;2023-07-31T03:10:14;47.73;41.69;61.07;;
66274;Laerm;58450;52.150;4.466;2023-07-31T03:12:42;50.18;43.18;64.25;;
66274;Laerm;58450;52.150;4.466;2023-07-31T03:15:10;47.73;40.51;63.52;;
66274;Laerm;58450;52.150;4.466;2023-07-31T03:17:38;50.16;43.03;65.17;;
66274;Laerm;58450;52.150;4.466;2023-07-31T03:20:06;51.85;43.18;69.67;;
66274;Laerm;58450;52.150;4.466;2023-07-31T03:22:34;51.79;44.75;68.79;;
66274;Laerm;58450;52.150;4.466;2023-07-31T03:25:04;54.57;43.53;80.14;;
66274;Laerm;58450;52.150;4.466;2023-07-31T03:27:32;50.26;43.39;66.71;;
66274;Laerm;58450;52.150;4.466;2023-07-31T03:30:00;53.00;45.00;64.69;;
66274;Laerm;58450;52.150;4.466;2023-07-31T03:32:28;52.63;45.32;71.58;;
66274;Laerm;58450;52.150;4.466;2023-07-31T03:34:55;53.55;43.52;73.38;;
66274;Laerm;58450;52.150;4.466;2023-07-31T03:37:23;50.68;43.66;65.74;;
66274;Laerm;58450;52.150;4.466;2023-07-31T03:39:50;51.74;44.48;72.32;;
66274;Laerm;58450;52.150;4.466;2023-07-31T03:42:19;48.81;43.15;68.03;;
66274;Laerm;58450;52.150;4.466;2023-07-31T03:44:47;52.56;41.91;66.48;;
66274;Laerm;58450;52.150;4.466;2023-07-31T03:47:15;48.39;41.50;64.09;;
66274;Laerm;58450;52.150;4.466;2023-07-31T03:49:42;46.25;41.88;63.53;;
66274;Laerm;58450;52.150;4.466;2023-07-31T03:52:10;49.85;42.46;68.50;;
66274;Laerm;58450;52.150;4.466;2023-07-31T03:54:37;52.05;42.15;70.22;;
66274;Laerm;58450;52.150;4.466;2023-07-31T03:57:06;55.67;46.67;69.63;;
66274;Laerm;58450;52.150;4.466;2023-07-31T03:59:35;54.06;47.20;72.01;;
66274;Laerm;58450;52.150;4.466;2023-07-31T04:02:03;53.40;45.83;74.27;;
66274;Laerm;58450;52.150;4.466;2023-07-31T04:04:30;53.37;44.33;72.34;;
66274;Laerm;58450;52.150;4.466;2023-07-31T04:06:58;49.70;41.29;71.09;;
66274;Laerm;58450;52.150;4.466;2023-07-31T04:09:25;53.45;43.13;70.32;;
66274;Laerm;58450;52.150;4.466;2023-07-31T04:11:53;49.46;43.98;63.85;;
66274;Laerm;58450;52.150;4.466;2023-07-31T04:14:20;50.97;42.86;64.67;;
66274;Laerm;58450;52.150;4.466;2023-07-31T04:16:50;49.98;43.55;66.19;;
66274;Laerm;58450;52.150;4.466;2023-07-31T04:19:18;54.29;44.17;72.54;;
66274;Laerm;58450;52.150;4.466;2023-07-31T04:21:46;50.07;45.28;61.73;;
66274;Laerm;58450;52.150;4.466;2023-07-31T04:24:13;51.22;46.62;61.60;;
66274;Laerm;58450;52.150;4.466;2023-07-31T04:26:41;54.45;48.17;69.95;;
66274;Laerm;58450;52.150;4.466;2023-07-31T04:29:09;54.16;49.69;70.44;;
66274;Laerm;58450;52.150;4.466;2023-07-31T04:31:36;56.13;51.13;65.73;;
66274;Laerm;58450;52.150;4.466;2023-07-31T04:34:05;54.95;47.95;65.10;;
66274;Laerm;58450;52.150;4.466;2023-07-31T04:36:34;51.25;47.10;67.62;;
66274;Laerm;58450;52.150;4.466;2023-07-31T04:39:02;54.08;47.81;71.61;;
66274;Laerm;58450;52.150;4.466;2023-07-31T04:41:30;54.84;49.17;62.32;;
66274;Laerm;58450;52.150;4.466;2023-07-31T04:43:57;59.48;52.36;67.62;;
66274;Laerm;58450;52.150;4.466;2023-07-31T04:46:25;62.45;53.48;84.28;;
66274;Laerm;58450;52.150;4.466;2023-07-31T04:48:52;61.49;53.65;83.17;;
66274;Laerm;58450;52.150;4.466;2023-07-31T04:51:22;58.70;52.60;73.61;;
66274;Laerm;58450;52.150;4.466;2023-07-31T04:53:49;59.13;52.63;70.44;;
66274;Laerm;58450;52.150;4.466;2023-07-31T04:56:17;56.37;50.24;69.18;;
66274;Laerm;58450;52.150;4.466;2023-07-31T04:58:45;57.05;51.01;69.03;;
66274;Laerm;58450;52.150;4.466;2023-07-31T05:01:12;55.92;50.87;64.04;;
66274;Laerm;58450;52.150;4.466;2023-07-31T05:03:40;60.28;53.18;68.82;;
66274;Laerm;58450;52.150;4.466;2023-07-31T05:06:07;60.40;54.12;68.51;;
66274;Laerm;58450;52.150;4.466;2023-07-31T05:08:36;60.63;54.29;70.21;;
66274;Laerm;58450;52.150;4.466;2023-07-31T05:11:04;59.09;52.98;67.47;;
66274;Laerm;58450;52.150;4.466;2023-07-31T05:13:31;56.73;51.14;66.20;;
66274;Laerm;58450;52.150;4.466;2023-07-31T05:15:59;54.94;49.47;62.32;;
66274;Laerm;58450;52.150;4.466;2023-07-31T05:18:26;55.50;49.49;64.32;;
66274;Laerm;58450;52.150;4.466;2023-07-31T05:20:54;53.15;49.15;59.95;;
66274;Laerm;58450;52.150;4.466;2023-07-31T05:23:22;54.38;49.37;67.10;;
66274;Laerm;58450;52.150;4.466;2023-07-31T05:25:51;54.14;49.42;65.90;;
66274;Laerm;58450;52.150;4.466;2023-07-31T05:28:18;54.87;49.28;75.91;;
66274;Laerm;58450;52.150;4.466;2023-07-31T05:30:46;55.29;49.36;73.21;;
66274;Laerm;58450;52.150;4.466;2023-07-31T05:33:13;54.43;50.09;63.94;;
66274;Laerm;58450;52.150;4.466;2023-07-31T05:35:41;53.09;49.08;62.97;;
66274;Laerm;58450;52.150;4.466;2023-07-31T05:38:11;54.04;49.63;66.53;;
66274;Laerm;58450;52.150;4.466;2023-07-31T05:40:38;53.31;48.98;61.76;;
66274;Laerm;58450;52.150;4.466;2023-07-31T05:43:07;54.33;49.52;67.75;;
66274;Laerm;58450;52.150;4.466;2023-07-31T05:45:35;53.32;48.94;63.34;;
66274;Laerm;58450;52.150;4.466;2023-07-31T05:48:04;53.94;49.55;61.30;;
66274;Laerm;58450;52.150;4.466;2023-07-31T05:50:31;53.56;49.81;61.19;;
66274;Laerm;58450;52.150;4.466;2023-07-31T05:52:59;54.30;49.65;63.83;;
66274;Laerm;58450;52.150;4.466;2023-07-31T05:55:27;53.80;49.21;63.07;;
66274;Laerm;58450;52.150;4.466;2023-07-31T05:57:55;53.38;49.80;61.78;;
66274;Laerm;58450;52.150;4.466;2023-07-31T06:00:23;54.28;50.44;63.48;;
66274;Laerm;58450;52.150;4.466;2023-07-31T06:02:51;54.84;49.63;72.73;;
66274;Laerm;58450;52.150;4.466;2023-07-31T06:05:19;53.49;49.97;64.04;;
66274;Laerm;58450;52.150;4.466;2023-07-31T06:07:46;54.74;49.83;67.49;;
66274;Laerm;58450;52.150;4.466;2023-07-31T06:10:14;54.37;50.11;67.05;;
66274;Laerm;58450;52.150;4.466;2023-07-31T06:12:42;54.78;49.94;67.24;;
66274;Laerm;58450;52.150;4.466;2023-07-31T06:15:10;58.92;50.48;68.65;;
66274;Laerm;58450;52.150;4.466;2023-07-31T06:17:39;57.79;51.67;70.32;;
66274;Laerm;58450;52.150;4.466;2023-07-31T06:20:08;55.44;50.47;70.88;;
66274;Laerm;58450;52.150;4.466;2023-07-31T06:22:36;55.70;50.71;76.11;;
66274;Laerm;58450;52.150;4.466;2023-07-31T06:25:05;55.74;50.78;66.46;;
66274;Laerm;58450;52.150;4.466;2023-07-31T06:27:32;54.94;49.50;66.52;;
66274;Laerm;58450;52.150;4.466;2023-07-31T06:30:00;55.44;48.90;65.85;;
66274;Laerm;58450;52.150;4.466;2023-07-31T06:32:28;54.25;48.59;63.82;;
66274;Laerm;58450;52.150;4.466;2023-07-31T06:34:57;56.24;49.95;65.95;;
66274;Laerm;58450;52.150;4.466;2023-07-31T06:37:24;57.44;51.69;67.37;;
66274;Laerm;58450;52.150;4.466;2023-07-31T06:39:52;58.94;53.32;72.52;;
66274;Laerm;58450;52.150;4.466;2023-07-31T06:42:19;57.69;51.76;67.51;;
66274;Laerm;58450;52.150;4.466;2023-07-31T06:44:47;58.54;51.99;72.12;;
66274;Laerm;58450;52.150;4.466;2023-07-31T06:47:14;56.53;51.07;67.91;;
66274;Laerm;58450;52.150;4.466;2023-07-31T06:49:42;58.22;52.13;73.89;;
66274;Laerm;58450;52.150;4.466;2023-07-31T06:52:11;56.04;50.69;71.56;;
66274;Laerm;58450;52.150;4.466;2023-07-31T06:54:38;56.37;50.08;71.72;;
66274;Laerm;58450;52.150;4.466;2023-07-31T06:57:06;54.00;48.90;66.57;;
66274;Laerm;58450;52.150;4.466;2023-07-31T06:59:34;55.85;49.02;69.92;;
66274;Laerm;58450;52.150;4.466;2023-07-31T07:02:01;53.66;49.24;65.99;;
66274;Laerm;58450;52.150;4.466;2023-07-31T07:04:29;55.66;49.83;71.97;;
66274;Laerm;58450;52.150;4.466;2023-07-31T07:06:56;53.52;49.29;71.87;;
66274;Laerm;58450;52.150;4.466;2023-07-31T07:09:25;53.67;49.02;63.47;;
66274;Laerm;58450;52.150;4.466;2023-07-31T07:11:53;55.34;48.80;71.93;;
66274;Laerm;58450;52.150;4.466;2023-07-31T07:14:20;56.11;50.72;69.97;;
66274;Laerm;58450;52.150;4.466;2023-07-31T07:16:51;58.84;51.47;73.86;;
66274;Laerm;58450;52.150;4.466;2023-07-31T07:19:18;55.92;51.26;70.60;;
66274;Laerm;58450;52.150;4.466;2023-07-31T07:21:46;54.21;49.86;65.96;;
66274;Laerm;58450;52.150;4.466;2023-07-31T07:24:13;55.31;49.73;67.93;;
66274;Laerm;58450;52.150;4.466;2023-07-31T07:26:42;56.83;49.49;75.92;;
66274;Laerm;58450;52.150;4.466;2023-07-31T07:29:10;58.22;52.30;68.19;;
66274;Laerm;58450;52.150;4.466;2023-07-31T07:31:37;58.17;51.64;76.89;;
66274;Laerm;58450;52.150;4.466;2023-07-31T07:34:05;56.30;49.80;70.19;;
66274;Laerm;58450;52.150;4.466;2023-07-31T07:36:32;55.62;49.96;71.98;;
66274;Laerm;58450;52.150;4.466;2023-07-31T07:39:00;56.51;50.47;69.16;;
66274;Laerm;58450;52.150;4.466;2023-07-31T07:41:27;54.32;49.28;69.36;;
66274;Laerm;58450;52.150;4.466;2023-07-31T07:43:56;57.79;49.79;71.48;;
66274;Laerm;58450;52.150;4.466;2023-07-31T07:46:24;54.88;50.43;67.93;;
66274;Laerm;58450;52.150;4.466;2023-07-31T07:48:51;57.35;50.80;68.16;;
66274;Laerm;58450;52.150;4.466;2023-07-31T07:51:19;54.16;49.32;68.03;;
66274;Laerm;58450;52.150;4.466;2023-07-31T07:53:46;57.46;50.90;78.66;;
66274;Laerm;58450;52.150;4.466;2023-07-31T07:56:14;55.07;49.26;64.57;;
66274;Laerm;58450;52.150;4.466;2023-07-31T07:58:42;55.76;50.08;70.79;;
66274;Laerm;58450;52.150;4.466;2023-07-31T08:01:11;56.50;49.97;69.97;;
66274;Laerm;58450;52.150;4.466;2023-07-31T08:03:38;56.95;49.99;72.81;;
66274;Laerm;58450;52.150;4.466;2023-07-31T08:06:06;56.76;50.00;74.63;;
66274;Laerm;58450;52.150;4.466;2023-07-31T08:08:35;59.46;51.78;75.30;;
66274;Laerm;58450;52.150;4.466;2023-07-31T08:11:03;56.54;50.05;69.90;;
66274;Laerm;58450;52.150;4.466;2023-07-31T08:13:30;57.64;52.49;72.60;;
66274;Laerm;58450;52.150;4.466;2023-07-31T08:15:58;52.81;48.53;59.92;;
66274;Laerm;58450;52.150;4.466;2023-07-31T08:18:27;54.94;49.51;72.36;;
66274;Laerm;58450;52.150;4.466;2023-07-31T08:20:55;58.89;49.36;71.84;;
66274;Laerm;58450;52.150;4.466;2023-07-31T08:23:22;55.86;49.43;75.82;;
66274;Laerm;58450;52.150;4.466;2023-07-31T08:25:50;61.91;50.71;81.44;;
66274;Laerm;58450;52.150;4.466;2023-07-31T08:28:17;56.00;49.18;70.25;;
66274;Laerm;58450;52.150;4.466;2023-07-31T08:30:45;59.17;49.86;77.00;;
66274;Laerm;58450;52.150;4.466;2023-07-31T08:33:13;58.34;48.71;79.01;;
66274;Laerm;58450;52.150;4.466;2023-07-31T08:35:42;53.95;49.03;66.97;;
66274;Laerm;58450;52.150;4.466;2023-07-31T08:38:09;54.56;48.07;72.01;;
66274;Laerm;58450;52.150;4.466;2023-07-31T08:40:37;57.00;48.06;79.19;;
66274;Laerm;58450;52.150;4.466;2023-07-31T08:43:05;55.30;47.17;66.59;;
66274;Laerm;58450;52.150;4.466;2023-07-31T08:45:32;53.42;48.14;67.71;;
66274;Laerm;58450;52.150;4.466;2023-07-31T08:48:01;55.52;49.72;67.72;;
66274;Laerm;58450;52.150;4.466;2023-07-31T08:50:29;55.46;48.93;68.56;;
66274;Laerm;58450;52.150;4.466;2023-07-31T08:52:58;55.97;48.93;67.64;;
66274;Laerm;58450;52.150;4.466;2023-07-31T08:55:27;58.35;49.24;76.40;;
66274;Laerm;58450;52.150;4.466;2023-07-31T08:57:56;53.10;46.25;64.08;;
66274;Laerm;58450;52.150;4.466;2023-07-31T09:00:25;54.20;47.03;64.95;;
66274;Laerm;58450;52.150;4.466;2023-07-31T09:02:58;54.12;46.98;67.80;;
66274;Laerm;58450;52.150;4.466;2023-07-31T09:05:30;52.57;45.88;75.96;;
66274;Laerm;58450;52.150;4.466;2023-07-31T09:08:02;55.98;47.92;74.08;;
66274;Laerm;58450;52.150;4.466;2023-07-31T09:10:31;54.01;47.33;72.43;;
66274;Laerm;58450;52.150;4.466;2023-07-31T09:12:59;52.54;46.00;64.46;;
66274;Laerm;58450;52.150;4.466;2023-07-31T09:15:28;54.02;46.02;67.36;;
66274;Laerm;58450;52.150;4.466;2023-07-31T09:18:00;55.29;47.99;71.30;;
66274;Laerm;58450;52.150;4.466;2023-07-31T09:20:28;55.26;48.27;68.79;;
66274;Laerm;58450;52.150;4.466;2023-07-31T09:22:56;53.39;47.26;61.49;;
66274;Laerm;58450;52.150;4.466;2023-07-31T09:25:26;55.90;47.46;73.74;;
66274;Laerm;58450;52.150;4.466;2023-07-31T09:27:57;59.47;48.15;76.68;;
66274;Laerm;58450;52.150;4.466;2023-07-31T09:30:26;56.82;48.15;72.92;;
66274;Laerm;58450;52.150;4.466;2023-07-31T09:33:02;56.98;47.86;77.80;;
66274;Laerm;58450;52.150;4.466;2023-07-31T09:35:32;57.74;46.19;78.69;;
66274;Laerm;58450;52.150;4.466;2023-07-31T09:38:04;54.85;49.57;66.32;;
66274;Laerm;58450;52.150;4.466;2023-07-31T09:40:36;58.42;51.47;66.21;;
66274;Laerm;58450;52.150;4.466;2023-07-31T09:43:06;54.83;48.46;71.38;;
66274;Laerm;58450;52.150;4.466;2023-07-31T09:45:36;51.97;46.13;64.48;;
66274;Laerm;58450;52.150;4.466;2023-07-31T09:48:07;54.98;46.76;64.96;;
66274;Laerm;58450;52.150;4.466;2023-07-31T09:50:38;51.03;46.90;63.90;;
66274;Laerm;58450;52.150;4.466;2023-07-31T09:53:06;53.75;46.68;69.73;;
66274;Laerm;58450;52.150;4.466;2023-07-31T09:55:37;52.68;46.42;63.91;;
66274;Laerm;58450;52.150;4.466;2023-07-31T09:58:07;51.27;45.85;61.30;;
66274;Laerm;58450;52.150;4.466;2023-07-31T10:00:35;53.56;46.83;66.98;;
66274;Laerm;58450;52.150;4.466;2023-07-31T10:03:07;54.94;46.12;74.67;;
66274;Laerm;58450;52.150;4.466;2023-07-31T10:05:38;55.39;47.22;73.66;;
66274;Laerm;58450;52.150;4.466;2023-07-31T10:08:10;58.66;45.72;77.01;;
66274;Laerm;58450;52.150;4.466;2023-07-31T10:10:43;51.70;46.04;65.17;;
66274;Laerm;58450;52.150;4.466;2023-07-31T10:13:12;54.36;46.27;68.23;;
66274;Laerm;58450;52.150;4.466;2023-07-31T10:15:41;53.75;46.66;71.50;;
66274;Laerm;58450;52.150;4.466;2023-07-31T10:18:11;51.38;44.51;62.89;;
66274;Laerm;58450;52.150;4.466;2023-07-31T10:20:40;54.27;47.53;68.43;;
66274;Laerm;58450;52.150;4.466;2023-07-31T10:23:08;55.81;46.06;73.88;;
66274;Laerm;58450;52.150;4.466;2023-07-31T10:25:38;53.37;46.42;68.13;;
66274;Laerm;58450;52.150;4.466;2023-07-31T10:28:10;58.54;48.20;72.95;;
66274;Laerm;58450;52.150;4.466;2023-07-31T10:30:39;58.01;48.59;76.65;;
66274;Laerm;58450;52.150;4.466;2023-07-31T10:33:08;56.35;47.66;80.16;;
66274;Laerm;58450;52.150;4.466;2023-07-31T10:35:36;57.71;46.86;77.27;;
66274;Laerm;58450;52.150;4.466;2023-07-31T10:38:10;55.75;50.37;68.54;;
66274;Laerm;58450;52.150;4.466;2023-07-31T10:40:40;55.71;49.59;69.55;;
66274;Laerm;58450;52.150;4.466;2023-07-31T10:43:09;56.01;47.83;69.37;;
66274;Laerm;58450;52.150;4.466;2023-07-31T10:45:39;56.18;45.81;76.66;;
66274;Laerm;58450;52.150;4.466;2023-07-31T10:48:13;55.59;47.17;65.39;;
66274;Laerm;58450;52.150;4.466;2023-07-31T10:50:48;51.99;46.36;67.81;;
66274;Laerm;58450;52.150;4.466;2023-07-31T10:53:23;57.94;48.60;79.07;;
66274;Laerm;58450;52.150;4.466;2023-07-31T10:55:51;53.16;47.74;65.52;;
66274;Laerm;58450;52.150;4.466;2023-07-31T10:58:21;56.59;47.71;75.83;;
66274;Laerm;58450;52.150;4.466;2023-07-31T11:00:49;51.14;45.78;68.24;;
66274;Laerm;58450;52.150;4.466;2023-07-31T11:03:18;54.51;47.15;62.69;;
66274;Laerm;58450;52.150;4.466;2023-07-31T11:05:50;55.75;48.17;69.75;;
66274;Laerm;58450;52.150;4.466;2023-07-31T11:08:22;53.69;48.87;65.39;;
66274;Laerm;58450;52.150;4.466;2023-07-31T11:11:04;55.51;47.22;73.90;;
66274;Laerm;58450;52.150;4.466;2023-07-31T11:13:41;54.32;46.69;68.65;;
66274;Laerm;58450;52.150;4.466;2023-07-31T11:16:10;56.26;46.55;71.18;;
66274;Laerm;58450;52.150;4.466;2023-07-31T11:18:40;56.85;46.54;73.54;;
66274;Laerm;58450;52.150;4.466;2023-07-31T11:21:11;53.56;46.31;69.07;;
66274;Laerm;58450;52.150;4.466;2023-07-31T11:23:39;58.78;49.21;74.23;;
66274;Laerm;58450;52.150;4.466;2023-07-31T11:26:07;55.86;47.26;68.26;;
66274;Laerm;58450;52.150;4.466;2023-07-31T11:28:36;60.40;50.38;79.28;;
66274;Laerm;58450;52.150;4.466;2023-07-31T11:31:04;56.63;48.62;77.52;;
66274;Laerm;58450;52.150;4.466;2023-07-31T11:33:32;53.91;49.15;64.65;;
66274;Laerm;58450;52.150;4.466;2023-07-31T11:36:00;56.03;46.91;74.75;;
66274;Laerm;58450;52.150;4.466;2023-07-31T11:38:30;54.43;45.87;66.28;;
66274;Laerm;58450;52.150;4.466;2023-07-31T11:41:01;52.83;46.22;65.60;;
66274;Laerm;58450;52.150;4.466;2023-07-31T11:43:31;57.07;46.47;68.86;;
66274;Laerm;58450;52.150;4.466;2023-07-31T11:46:01;52.28;46.32;63.66;;
66274;Laerm;58450;52.150;4.466;2023-07-31T11:48:32;54.23;47.54;70.48;;
66274;Laerm;58450;52.150;4.466;2023-07-31T11:51:04;56.84;49.51;75.66;;
66274;Laerm;58450;52.150;4.466;2023-07-31T11:53:37;56.61;49.45;75.34;;
66274;Laerm;58450;52.150;4.466;2023-07-31T11:56:06;58.43;48.77;75.99;;
66274;Laerm;58450;52.150;4.466;2023-07-31T11:58:36;59.46;49.37;80.45;;
66274;Laerm;58450;52.150;4.466;2023-07-31T12:01:06;55.75;49.02;72.43;;
66274;Laerm;58450;52.150;4.466;2023-07-31T12:03:35;56.33;46.56;74.80;;
66274;Laerm;58450;52.150;4.466;2023-07-31T12:06:02;52.72;47.08;69.85;;
66274;Laerm;58450;52.150;4.466;2023-07-31T12:08:30;57.37;50.28;71.52;;
66274;Laerm;58450;52.150;4.466;2023-07-31T12:11:04;57.23;47.97;77.71;;
66274;Laerm;58450;52.150;4.466;2023-07-31T12:13:33;56.33;46.77;69.40;;
66274;Laerm;58450;52.150;4.466;2023-07-31T12:16:05;53.77;47.03;64.02;;
66274;Laerm;58450;52.150;4.466;2023-07-31T12:18:36;56.66;48.71;79.53;;
66274;Laerm;58450;52.150;4.466;2023-07-31T12:21:05;55.62;48.11;70.04;;
66274;Laerm;58450;52.150;4.466;2023-07-31T12:23:36;56.03;47.93;77.01;;
66274;Laerm;58450;52.150;4.466;2023-07-31T12:26:06;58.68;48.92;74.75;;
66274;Laerm;58450;52.150;4.466;2023-07-31T12:28:39;55.91;47.91;68.21;;
66274;Laerm;58450;52.150;4.466;2023-07-31T12:31:10;54.68;48.72;69.47;;
66274;Laerm;58450;52.150;4.466;2023-07-31T12:33:40;55.62;47.14;73.06;;
66274;Laerm;58450;52.150;4.466;2023-07-31T12:36:10;52.90;47.39;60.56;;
66274;Laerm;58450;52.150;4.466;2023-07-31T12:38:38;54.88;47.04;79.36;;
66274;Laerm;58450;52.150;4.466;2023-07-31T12:41:06;51.62;44.25;62.09;;
66274;Laerm;58450;52.150;4.466;2023-07-31T12:43:34;55.64;47.21;78.84;;
66274;Laerm;58450;52.150;4.466;2023-07-31T12:46:02;56.55;45.09;76.27;;
66274;Laerm;58450;52.150;4.466;2023-07-31T12:48:32;54.24;46.69;66.49;;
66274;Laerm;58450;52.150;4.466;2023-07-31T12:50:59;53.58;46.51;63.81;;
66274;Laerm;58450;52.150;4.466;2023-07-31T12:53:27;56.14;48.20;68.14;;
66274;Laerm;58450;52.150;4.466;2023-07-31T12:55:55;58.97;51.70;75.66;;
66274;Laerm;58450;52.150;4.466;2023-07-31T12:58:23;56.65;46.71;70.49;;
66274;Laerm;58450;52.150;4.466;2023-07-31T13:00:51;55.89;48.69;68.72;;
66274;Laerm;58450;52.150;4.466;2023-07-31T13:03:18;52.25;46.75;64.28;;
66274;Laerm;58450;52.150;4.466;2023-07-31T13:05:47;54.62;46.33;71.23;;
66274;Laerm;58450;52.150;4.466;2023-07-31T13:08:15;59.75;47.62;84.45;;
66274;Laerm;58450;52.150;4.466;2023-07-31T13:10:43;55.02;48.55;67.31;;
66274;Laerm;58450;52.150;4.466;2023-07-31T13:13:11;58.07;48.61;72.97;;
66274;Laerm;58450;52.150;4.466;2023-07-31T13:15:39;54.36;46.55;66.18;;
66274;Laerm;58450;52.150;4.466;2023-07-31T13:18:06;55.40;45.86;67.28;;
66274;Laerm;58450;52.150;4.466;2023-07-31T13:20:34;58.34;49.54;77.72;;
66274;Laerm;58450;52.150;4.466;2023-07-31T13:23:03;55.60;48.99;68.17;;
66274;Laerm;58450;52.150;4.466;2023-07-31T13:25:31;55.92;49.48;70.82;;
66274;Laerm;58450;52.150;4.466;2023-07-31T13:27:58;52.11;45.88;67.32;;
66274;Laerm;58450;52.150;4.466;2023-07-31T13:30:26;55.70;46.81;76.50;;
66274;Laerm;58450;52.150;4.466;2023-07-31T13:32:53;60.32;49.12;75.50;;
66274;Laerm;58450;52.150;4.466;2023-07-31T13:35:21;57.15;48.85;72.10;;
66274;Laerm;58450;52.150;4.466;2023-07-31T13:37:48;62.43;49.47;85.15;;
66274;Laerm;58450;52.150;4.466;2023-07-31T13:40:17;58.87;46.61;82.46;;
66274;Laerm;58450;52.150;4.466;2023-07-31T13:42:45;55.00;47.24;64.73;;
66274;Laerm;58450;52.150;4.466;2023-07-31T13:45:14;56.57;49.61;68.19;;
66274;Laerm;58450;52.150;4.466;2023-07-31T13:47:41;55.75;49.09;69.27;;
66274;Laerm;58450;52.150;4.466;2023-07-31T13:50:09;55.29;47.07;69.19;;
66274;Laerm;58450;52.150;4.466;2023-07-31T13:52:37;61.14;52.18;73.90;;
66274;Laerm;58450;52.150;4.466;2023-07-31T13:55:06;63.93;50.86;84.48;;